Terminal Aerodrome Forecast
Issued by NWS

Home | Current Version | Previous Version | Text Only | Print | Product List | Glossary On
Versions: 1 2 3 4 5 6 7 8 9 10 11 12 13
000
FTUS43 KLSX 201700
TAFUIN
TAF
KUIN 201721Z 2018/2118 18008KT P6SM SCT050
     FM210100 16005KT P6SM SCT250
     FM211400 18010KT P6SM SCT250=

USA.gov is the U.S. government's official web portal to all federal, state and local government web resources and services.